Time;durP1;ratioP1;P1;durP2;ratioP2;P2;SDS_P1;SDS_P2;PMS_P1;PMS_P2;Temp;Humidity;BMP_temperature;BMP_pressure;BME280_temperature;BME280_humidity;BME280_pressure;Samples;Min_cycle;Max_cycle;Signal;HPM_P1;HPM_P2
2021/08/07 00:00:42;;;;;;;5.78;1.77;;;;;;;;;;5016856;28;20377;-92
2021/08/07 00:03:07;;;;;;;2.30;1.50;;;;;;;;;;5012808;28;20030;-92
2021/08/07 00:05:32;;;;;;;5.88;1.77;;;;;;;;;;5020254;28;20036;-91
2021/08/07 00:07:57;;;;;;;3.70;1.55;;;;;;;;;;5012073;28;20026;-92
2021/08/07 00:10:24;;;;;;;4.65;1.80;;;;;;;;;;5012448;28;20489;-91
2021/08/07 00:12:49;;;;;;;4.32;1.65;;;;;;;;;;5022512;28;20045;-92
2021/08/07 00:15:14;;;;;;;7.03;1.58;;;;;;;;;;5011267;28;20543;-91
2021/08/07 00:17:39;;;;;;;3.45;1.58;;;;;;;;;;5012033;28;20497;-91
2021/08/07 00:20:05;;;;;;;2.45;1.27;;;;;;;;;;5019916;28;20466;-92
2021/08/07 00:22:31;;;;;;;3.63;1.70;;;;;;;;;;5011986;28;20048;-92
2021/08/07 00:24:56;;;;;;;2.78;1.35;;;;;;;;;;5013220;28;20535;-92
2021/08/07 00:27:21;;;;;;;4.70;1.85;;;;;;;;;;5012220;28;20520;-92
2021/08/07 00:29:46;;;;;;;4.88;1.50;;;;;;;;;;5013219;28;20061;-90
2021/08/07 00:32:11;;;;;;;3.10;1.50;;;;;;;;;;5011831;28;20065;-92
2021/08/07 00:34:37;;;;;;;3.17;1.70;;;;;;;;;;5027759;28;20034;-92
2021/08/07 00:37:05;;;;;;;3.97;1.65;;;;;;;;;;5019940;28;20054;-92
2021/08/07 00:39:30;;;;;;;6.45;1.77;;;;;;;;;;5013927;28;20045;-92
2021/08/07 00:41:55;;;;;;;4.30;1.40;;;;;;;;;;5015933;28;20014;-92
2021/08/07 00:44:21;;;;;;;4.07;2.05;;;;;;;;;;5011687;28;20631;-92
2021/08/07 00:46:46;;;;;;;3.90;1.73;;;;;;;;;;5015338;28;20675;-91
2021/08/07 00:49:11;;;;;;;4.38;1.60;;;;;;;;;;5012199;28;20499;-91
2021/08/07 00:51:36;;;;;;;7.82;1.67;;;;;;;;;;5012138;28;20042;-92
2021/08/07 00:54:02;;;;;;;14.40;2.00;;;;;;;;;;5013403;28;20033;-91
2021/08/07 00:56:27;;;;;;;4.15;2.08;;;;;;;;;;5011759;28;20075;-93
2021/08/07 00:58:52;;;;;;;2.92;1.73;;;;;;;;;;5011985;28;20492;-92
2021/08/07 01:01:17;;;;;;;4.20;1.77;;;;;;;;;;5018657;28;20051;-91
2021/08/07 01:03:45;;;;;;;3.40;1.70;;;;;;;;;;5012564;28;20022;-91
2021/08/07 01:06:22;;;;;;;4.47;1.90;;;;;;;;;;5011596;28;20022;-91
2021/08/07 01:09:08;;;;;;;7.70;1.77;;;;;;;;;;5019534;28;20417;-92
2021/08/07 01:11:33;;;;;;;2.63;1.58;;;;;;;;;;5010122;28;20029;-91
2021/08/07 01:14:02;;;;;;;4.35;1.65;;;;;;;;;;5011719;28;20088;-92
2021/08/07 01:16:32;;;;;;;3.28;1.80;;;;;;;;;;5050034;28;20080;-91
2021/08/07 01:18:58;;;;;;;5.63;2.05;;;;;;;;;;5018555;28;20145;-92
2021/08/07 01:21:26;;;;;;;3.97;1.90;;;;;;;;;;5013603;28;20085;-92
2021/08/07 01:23:56;;;;;;;4.05;1.90;;;;;;;;;;5018414;28;20029;-91
2021/08/07 01:26:40;;;;;;;4.85;2.13;;;;;;;;;;5020250;28;20025;-92
2021/08/07 01:29:05;;;;;;;4.53;1.85;;;;;;;;;;5051710;28;20017;-92
2021/08/07 01:31:31;;;;;;;5.25;2.20;;;;;;;;;;5016830;28;20113;-92
2021/08/07 01:33:57;;;;;;;3.92;1.98;;;;;;;;;;5015153;28;20093;-92
2021/08/07 01:36:22;;;;;;;3.80;1.88;;;;;;;;;;5020353;28;20041;-91
2021/08/07 01:38:47;;;;;;;6.80;2.13;;;;;;;;;;5024174;28;20018;-92
2021/08/07 01:41:22;;;;;;;7.82;2.03;;;;;;;;;;5015086;28;20119;-92
2021/08/07 01:43:48;;;;;;;5.88;1.67;;;;;;;;;;5019669;28;20028;-92
2021/08/07 01:46:14;;;;;;;4.20;2.00;;;;;;;;;;5025322;28;20029;-91
2021/08/07 01:49:01;;;;;;;5.28;2.65;;;;;;;;;;5022880;28;20116;-92
2021/08/07 01:51:37;;;;;;;10.23;2.40;;;;;;;;;;5017891;28;20358;-92
2021/08/07 01:54:04;;;;;;;5.95;1.95;;;;;;;;;;5016483;28;20018;-92
2021/08/07 01:56:31;;;;;;;5.20;1.67;;;;;;;;;;5024640;28;20026;-92
2021/08/07 01:58:57;;;;;;;4.47;2.05;;;;;;;;;;5015095;28;20013;-92
2021/08/07 02:01:27;;;;;;;4.05;1.63;;;;;;;;;;5014777;28;20105;-91
2021/08/07 02:03:53;;;;;;;3.80;1.35;;;;;;;;;;5014738;28;20063;-91
2021/08/07 02:06:18;;;;;;;6.43;1.98;;;;;;;;;;5022141;28;20021;-92
2021/08/07 02:08:44;;;;;;;5.28;1.85;;;;;;;;;;5016614;28;20010;-92
2021/08/07 02:11:10;;;;;;;3.50;1.80;;;;;;;;;;5015375;28;20064;-92
2021/08/07 02:13:36;;;;;;;6.72;2.00;;;;;;;;;;5021091;28;20045;-92
2021/08/07 02:16:02;;;;;;;7.97;1.90;;;;;;;;;;5014056;28;20064;-92
2021/08/07 02:18:29;;;;;;;12.20;2.10;;;;;;;;;;5025140;28;20060;-92
2021/08/07 02:20:55;;;;;;;3.80;1.63;;;;;;;;;;5018875;28;20014;-92
2021/08/07 02:23:20;;;;;;;6.15;1.38;;;;;;;;;;5014369;28;20028;-92
2021/08/07 02:25:48;;;;;;;3.80;1.52;;;;;;;;;;5019133;28;20518;-91
2021/08/07 02:28:14;;;;;;;8.00;2.00;;;;;;;;;;5014762;28;20473;-92
2021/08/07 02:30:40;;;;;;;6.43;1.52;;;;;;;;;;5014305;28;20022;-91
2021/08/07 02:33:06;;;;;;;4.50;1.52;;;;;;;;;;5015376;28;20033;-92
2021/08/07 02:35:31;;;;;;;4.30;1.70;;;;;;;;;;5024629;28;20053;-92
2021/08/07 02:37:57;;;;;;;3.92;1.60;;;;;;;;;;5018669;28;20485;-91
2021/08/07 02:40:22;;;;;;;4.18;1.83;;;;;;;;;;5019312;28;20018;-91
2021/08/07 02:42:48;;;;;;;4.03;1.92;;;;;;;;;;5014233;28;20028;-92
2021/08/07 02:45:15;;;;;;;11.23;2.40;;;;;;;;;;5013646;28;20029;-92
2021/08/07 02:47:40;;;;;;;6.95;2.30;;;;;;;;;;5016832;28;20033;-91
2021/08/07 02:50:06;;;;;;;6.30;1.60;;;;;;;;;;5012357;28;20516;-92
2021/08/07 02:52:33;;;;;;;3.80;1.90;;;;;;;;;;5054039;28;20026;-92
2021/08/07 02:54:58;;;;;;;4.47;2.22;;;;;;;;;;5020251;28;20022;-92
2021/08/07 02:57:24;;;;;;;7.35;2.85;;;;;;;;;;5013797;28;20492;-91
2021/08/07 02:59:49;;;;;;;9.05;3.05;;;;;;;;;;5013762;28;20014;-92
2021/08/07 03:02:15;;;;;;;4.88;2.42;;;;;;;;;;5013684;28;20029;-92
2021/08/07 03:04:40;;;;;;;7.72;2.25;;;;;;;;;;5024428;28;20501;-92
2021/08/07 03:07:05;;;;;;;4.53;1.92;;;;;;;;;;5018387;28;20450;-91
2021/08/07 03:09:30;;;;;;;4.00;1.88;;;;;;;;;;5022988;28;20032;-92
2021/08/07 03:11:56;;;;;;;3.05;2.03;;;;;;;;;;5020623;28;20050;-92
2021/08/07 03:14:21;;;;;;;5.75;1.88;;;;;;;;;;5012942;28;20028;-92
2021/08/07 03:16:46;;;;;;;4.97;2.28;;;;;;;;;;5013828;28;20234;-91
2021/08/07 03:19:11;;;;;;;5.40;2.13;;;;;;;;;;5014155;28;20026;-92
2021/08/07 03:21:36;;;;;;;3.38;2.03;;;;;;;;;;5013153;28;20036;-92
2021/08/07 03:24:02;;;;;;;7.55;2.72;;;;;;;;;;5013124;28;20072;-92
2021/08/07 03:26:27;;;;;;;6.68;2.63;;;;;;;;;;5022518;28;20438;-92
2021/08/07 03:28:52;;;;;;;9.15;2.95;;;;;;;;;;5013385;28;20354;-92
2021/08/07 03:31:18;;;;;;;4.70;3.50;;;;;;;;;;5013815;28;20022;-92
2021/08/07 03:33:43;;;;;;;12.43;2.92;;;;;;;;;;5028480;28;20027;-92
2021/08/07 03:36:09;;;;;;;4.70;3.03;;;;;;;;;;5024652;28;20029;-92
2021/08/07 03:38:34;;;;;;;5.55;3.13;;;;;;;;;;5020453;28;20088;-92
2021/08/07 03:40:59;;;;;;;28.45;4.25;;;;;;;;;;5045499;28;20018;-92
2021/08/07 03:43:24;;;;;;;7.53;3.00;;;;;;;;;;5012876;28;20026;-92
2021/08/07 03:45:50;;;;;;;4.43;3.17;;;;;;;;;;5012150;28;20113;-92
2021/08/07 03:48:15;;;;;;;9.02;3.42;;;;;;;;;;5012459;28;20528;-92
2021/08/07 03:50:41;;;;;;;9.82;3.85;;;;;;;;;;5025289;28;20021;-92
2021/08/07 03:53:06;;;;;;;9.77;3.97;;;;;;;;;;5013812;28;20026;-92
2021/08/07 03:55:31;;;;;;;7.55;3.58;;;;;;;;;;5017921;28;20022;-93
2021/08/07 03:58:01;;;;;;;8.27;4.32;;;;;;;;;;5027219;28;20022;-92
2021/08/07 04:00:28;;;;;;;39.50;5.10;;;;;;;;;;5013794;28;20358;-93
2021/08/07 04:02:53;;;;;;;8.30;3.97;;;;;;;;;;5012378;28;20013;-92
2021/08/07 04:05:18;;;;;;;16.92;4.80;;;;;;;;;;5023450;28;20048;-91
2021/08/07 04:07:44;;;;;;;18.48;4.15;;;;;;;;;;5024578;28;20017;-92
2021/08/07 04:10:09;;;;;;;6.57;3.67;;;;;;;;;;5021937;28;20018;-91
2021/08/07 04:12:35;;;;;;;5.82;3.40;;;;;;;;;;5018982;28;20033;-91
2021/08/07 04:15:00;;;;;;;5.47;3.55;;;;;;;;;;5020161;28;20029;-90
2021/08/07 04:17:25;;;;;;;9.23;3.95;;;;;;;;;;5016166;28;20642;-92
2021/08/07 04:19:51;;;;;;;7.15;3.72;;;;;;;;;;5023491;28;20029;-92
2021/08/07 04:22:16;;;;;;;7.55;3.47;;;;;;;;;;5017106;28;20040;-92
2021/08/07 04:24:41;;;;;;;11.43;3.42;;;;;;;;;;5028305;28;20452;-92
2021/08/07 04:27:06;;;;;;;5.53;3.08;;;;;;;;;;5015742;28;20033;-92
2021/08/07 04:29:31;;;;;;;6.65;2.97;;;;;;;;;;5015039;28;20028;-92
2021/08/07 04:31:57;;;;;;;5.03;2.83;;;;;;;;;;5020549;28;20116;-92
2021/08/07 04:34:22;;;;;;;8.75;3.00;;;;;;;;;;5018992;28;20025;-92
2021/08/07 04:36:47;;;;;;;4.88;2.72;;;;;;;;;;5018842;28;20022;-92
2021/08/07 04:39:12;;;;;;;5.38;2.70;;;;;;;;;;5012089;28;20113;-92
2021/08/07 04:41:40;;;;;;;5.55;2.28;;;;;;;;;;5027496;28;20048;-92
2021/08/07 04:44:05;;;;;;;5.03;2.90;;;;;;;;;;5016854;28;20535;-91
2021/08/07 04:46:30;;;;;;;5.93;2.75;;;;;;;;;;5017500;28;20026;-92
2021/08/07 04:48:56;;;;;;;4.70;2.75;;;;;;;;;;5018335;28;20056;-92
2021/08/07 04:51:21;;;;;;;6.40;2.50;;;;;;;;;;5012034;28;20021;-91
2021/08/07 04:53:46;;;;;;;7.70;2.67;;;;;;;;;;5023755;28;20116;-92
2021/08/07 04:56:11;;;;;;;5.05;2.40;;;;;;;;;;5016513;28;20022;-92
2021/08/07 04:58:36;;;;;;;4.05;2.50;;;;;;;;;;5018755;28;20028;-92
2021/08/07 05:01:02;;;;;;;9.50;2.20;;;;;;;;;;5049297;28;20029;-92
2021/08/07 05:03:27;;;;;;;4.88;2.15;;;;;;;;;;5049829;28;20128;-92
2021/08/07 05:05:52;;;;;;;3.17;2.03;;;;;;;;;;5057344;28;20457;-92
2021/08/07 05:08:17;;;;;;;7.03;2.10;;;;;;;;;;5021778;28;20037;-91
2021/08/07 05:10:43;;;;;;;7.85;2.20;;;;;;;;;;5017900;28;20026;-92
2021/08/07 05:13:08;;;;;;;9.00;2.05;;;;;;;;;;5024488;28;20481;-92
2021/08/07 05:15:33;;;;;;;9.30;1.80;;;;;;;;;;5020494;28;20036;-91
2021/08/07 05:17:58;;;;;;;3.78;2.20;;;;;;;;;;5015787;28;20029;-92
2021/08/07 05:20:24;;;;;;;7.53;1.90;;;;;;;;;;5015072;28;20017;-92
2021/08/07 05:22:49;;;;;;;4.68;1.90;;;;;;;;;;5019852;28;20018;-92
2021/08/07 05:25:15;;;;;;;9.50;2.30;;;;;;;;;;5022458;28;20022;-92
2021/08/07 05:27:40;;;;;;;6.13;2.13;;;;;;;;;;5014922;28;20100;-91
2021/08/07 05:30:06;;;;;;;7.30;1.83;;;;;;;;;;5019631;28;20025;-92
2021/08/07 05:32:31;;;;;;;5.28;2.13;;;;;;;;;;5018365;28;20026;-91
2021/08/07 05:34:56;;;;;;;6.38;2.13;;;;;;;;;;5025879;28;20044;-92
2021/08/07 05:37:22;;;;;;;7.05;2.03;;;;;;;;;;5020997;28;20033;-92
2021/08/07 05:39:47;;;;;;;6.65;1.90;;;;;;;;;;5024743;28;20026;-93
2021/08/07 05:42:12;;;;;;;3.88;2.03;;;;;;;;;;5033559;28;20074;-92
2021/08/07 05:44:37;;;;;;;5.35;1.92;;;;;;;;;;5016992;28;20030;-92
2021/08/07 05:47:03;;;;;;;4.43;1.85;;;;;;;;;;5014824;28;20034;-92
2021/08/07 05:49:28;;;;;;;10.40;1.92;;;;;;;;;;5025914;28;20024;-92
2021/08/07 05:51:53;;;;;;;5.38;1.40;;;;;;;;;;5022805;28;20022;-93
2021/08/07 05:54:20;;;;;;;5.35;2.13;;;;;;;;;;5028624;28;20032;-92
2021/08/07 05:56:45;;;;;;;4.50;1.63;;;;;;;;;;5018277;28;20013;-92
2021/08/07 05:59:11;;;;;;;7.35;1.80;;;;;;;;;;5014778;28;20024;-92
2021/08/07 06:01:36;;;;;;;6.18;1.80;;;;;;;;;;5014808;28;20018;-92
2021/08/07 06:04:01;;;;;;;9.10;1.63;;;;;;;;;;5024665;28;20026;-92
2021/08/07 06:06:26;;;;;;;5.95;1.70;;;;;;;;;;5034059;28;20483;-92
2021/08/07 06:08:51;;;;;;;7.63;1.60;;;;;;;;;;5025120;28;20037;-92
2021/08/07 06:11:17;;;;;;;3.25;1.55;;;;;;;;;;5024023;28;20030;-92
2021/08/07 06:13:42;;;;;;;6.55;1.60;;;;;;;;;;5029208;28;20020;-92
2021/08/07 06:16:07;;;;;;;7.10;2.05;;;;;;;;;;5014378;28;20021;-93
2021/08/07 06:18:32;;;;;;;4.45;1.95;;;;;;;;;;5031694;28;20024;-91
2021/08/07 06:20:57;;;;;;;5.97;1.98;;;;;;;;;;5014893;28;20049;-92
2021/08/07 06:23:23;;;;;;;8.57;1.77;;;;;;;;;;5014527;28;20554;-92
2021/08/07 06:25:48;;;;;;;6.07;1.60;;;;;;;;;;5022582;28;20112;-92
2021/08/07 06:28:13;;;;;;;6.15;1.40;;;;;;;;;;5014321;28;20030;-92
2021/08/07 06:30:45;;;;;;;4.30;1.35;;;;;;;;;;5016104;28;20025;-92
2021/08/07 06:33:10;;;;;;;7.10;1.83;;;;;;;;;;5022410;28;20072;-92
2021/08/07 06:35:36;;;;;;;5.35;1.17;;;;;;;;;;5022319;28;20037;-92
2021/08/07 06:38:01;;;;;;;2.92;1.58;;;;;;;;;;5019627;28;20013;-91
2021/08/07 06:40:27;;;;;;;6.57;2.03;;;;;;;;;;5022071;28;20026;-92
2021/08/07 06:42:52;;;;;;;9.68;1.17;;;;;;;;;;5013687;28;20014;-92
2021/08/07 06:45:17;;;;;;;5.50;1.33;;;;;;;;;;5021117;28;20057;-91
2021/08/07 06:47:42;;;;;;;3.83;1.40;;;;;;;;;;5018177;28;20489;-92
2021/08/07 06:50:08;;;;;;;12.20;1.48;;;;;;;;;;5020914;28;20484;-92
2021/08/07 06:52:34;;;;;;;9.70;1.60;;;;;;;;;;5020961;28;20538;-92
2021/08/07 06:55:00;;;;;;;3.45;1.15;;;;;;;;;;5017969;28;20029;-91
2021/08/07 06:57:25;;;;;;;4.20;1.20;;;;;;;;;;5022086;28;20493;-91
2021/08/07 06:59:51;;;;;;;10.82;1.40;;;;;;;;;;5024339;28;20021;-92
2021/08/07 07:02:17;;;;;;;4.72;1.20;;;;;;;;;;5014034;28;20033;-92
2021/08/07 07:04:42;;;;;;;5.35;1.05;;;;;;;;;;5021433;28;20021;-92
2021/08/07 07:07:07;;;;;;;7.00;1.50;;;;;;;;;;5022270;28;20029;-92
2021/08/07 07:09:32;;;;;;;3.53;1.27;;;;;;;;;;5013542;28;20025;-92
2021/08/07 07:11:58;;;;;;;8.27;1.63;;;;;;;;;;5013165;28;20021;-92
2021/08/07 07:14:23;;;;;;;6.63;1.23;;;;;;;;;;5027192;28;20036;-91
2021/08/07 07:16:48;;;;;;;4.10;1.45;;;;;;;;;;5015193;28;20478;-92
2021/08/07 07:19:14;;;;;;;4.28;1.15;;;;;;;;;;5013302;28;20022;-93
2021/08/07 07:21:40;;;;;;;7.45;1.20;;;;;;;;;;5059544;28;20025;-92
2021/08/07 07:24:05;;;;;;;6.55;1.40;;;;;;;;;;5012961;28;20014;-91
2021/08/07 07:26:30;;;;;;;4.80;1.20;;;;;;;;;;5019240;28;20026;-92
2021/08/07 07:28:56;;;;;;;5.78;1.42;;;;;;;;;;5023756;28;20022;-92
2021/08/07 07:31:21;;;;;;;5.57;1.55;;;;;;;;;;5023174;28;20025;-92
2021/08/07 07:33:47;;;;;;;6.70;1.60;;;;;;;;;;5024219;28;20053;-91
2021/08/07 07:36:12;;;;;;;7.57;1.23;;;;;;;;;;5021303;28;20401;-92
2021/08/07 07:38:37;;;;;;;6.43;0.90;;;;;;;;;;5012851;28;20038;-92
2021/08/07 07:41:02;;;;;;;3.63;1.08;;;;;;;;;;5016200;28;20026;-91
2021/08/07 07:43:27;;;;;;;7.57;1.20;;;;;;;;;;5027696;28;20021;-91
2021/08/07 07:45:53;;;;;;;8.07;1.10;;;;;;;;;;5017892;28;20079;-91
2021/08/07 07:48:18;;;;;;;7.25;1.40;;;;;;;;;;5024224;28;20421;-91
2021/08/07 07:50:43;;;;;;;5.18;1.38;;;;;;;;;;5026211;28;20022;-92
2021/08/07 07:53:09;;;;;;;4.45;1.08;;;;;;;;;;5021144;28;20041;-92
2021/08/07 07:55:34;;;;;;;3.33;1.02;;;;;;;;;;5018958;28;20036;-92
2021/08/07 07:58:00;;;;;;;3.65;1.35;;;;;;;;;;5013336;28;20033;-92
2021/08/07 08:00:26;;;;;;;6.43;1.15;;;;;;;;;;5014221;28;20112;-91
2021/08/07 08:02:51;;;;;;;6.63;1.25;;;;;;;;;;5017041;28;20056;-92
2021/08/07 08:05:17;;;;;;;6.43;1.05;;;;;;;;;;5012232;28;20049;-92
2021/08/07 08:07:42;;;;;;;5.10;1.30;;;;;;;;;;5013652;28;20382;-92
2021/08/07 08:10:08;;;;;;;8.48;1.45;;;;;;;;;;5023809;28;20029;-93
2021/08/07 08:12:33;;;;;;;8.27;1.17;;;;;;;;;;5012466;28;20109;-92
2021/08/07 08:14:58;;;;;;;4.65;1.20;;;;;;;;;;5022448;28;20387;-92
2021/08/07 08:17:23;;;;;;;8.65;1.40;;;;;;;;;;5023018;28;20022;-92
2021/08/07 08:19:48;;;;;;;7.28;1.50;;;;;;;;;;5018288;28;20026;-92
2021/08/07 08:22:14;;;;;;;5.68;1.33;;;;;;;;;;5020881;28;20440;-93
2021/08/07 08:24:39;;;;;;;6.85;1.33;;;;;;;;;;5027942;28;20112;-92
2021/08/07 08:27:04;;;;;;;5.03;1.23;;;;;;;;;;5018574;28;20106;-93
2021/08/07 08:29:29;;;;;;;7.75;1.40;;;;;;;;;;5019807;28;20176;-92
2021/08/07 08:31:54;;;;;;;9.88;1.50;;;;;;;;;;5012373;28;20026;-92
2021/08/07 08:34:20;;;;;;;8.25;1.90;;;;;;;;;;5025549;28;20025;-93
2021/08/07 08:36:45;;;;;;;6.07;1.45;;;;;;;;;;5013834;28;20032;-94
2021/08/07 08:39:10;;;;;;;8.77;1.50;;;;;;;;;;5016106;28;20006;-93
2021/08/07 08:41:36;;;;;;;3.10;1.10;;;;;;;;;;5017138;28;20528;-93
2021/08/07 08:44:01;;;;;;;10.32;1.50;;;;;;;;;;5016215;28;20128;-92
2021/08/07 08:46:26;;;;;;;8.98;1.38;;;;;;;;;;5016217;28;20049;-92
2021/08/07 08:48:53;;;;;;;5.60;1.40;;;;;;;;;;5015996;28;20036;-92
2021/08/07 08:51:18;;;;;;;6.47;1.33;;;;;;;;;;5016169;28;20022;-93
2021/08/07 08:53:45;;;;;;;10.68;1.60;;;;;;;;;;5019055;28;20040;-93
2021/08/07 08:56:10;;;;;;;8.82;1.40;;;;;;;;;;5020844;28;20111;-93
2021/08/07 08:58:36;;;;;;;3.60;0.93;;;;;;;;;;5022590;28;20022;-92
2021/08/07 09:01:02;;;;;;;5.65;1.27;;;;;;;;;;5022887;28;20033;-92
2021/08/07 09:03:27;;;;;;;5.05;1.30;;;;;;;;;;5015784;28;20041;-93
2021/08/07 09:05:52;;;;;;;8.70;1.15;;;;;;;;;;5018155;28;20454;-94
2021/08/07 09:08:18;;;;;;;3.75;1.08;;;;;;;;;;5027503;28;20029;-93
2021/08/07 09:10:43;;;;;;;9.82;1.38;;;;;;;;;;5029515;28;20022;-93
2021/08/07 09:13:17;;;;;;;7.57;1.10;;;;;;;;;;5020018;28;20014;-93
2021/08/07 09:15:43;;;;;;;6.78;1.20;;;;;;;;;;5017442;28;20022;-92
2021/08/07 09:18:14;;;;;;;5.60;1.30;;;;;;;;;;5019922;28;20530;-93
2021/08/07 09:20:43;;;;;;;7.87;1.10;;;;;;;;;;5023671;28;20032;-93
2021/08/07 09:23:09;;;;;;;7.97;1.40;;;;;;;;;;5030155;28;20083;-93
2021/08/07 09:25:35;;;;;;;6.75;1.20;;;;;;;;;;5020048;28;20376;-92
2021/08/07 09:28:00;;;;;;;4.15;1.23;;;;;;;;;;5018690;28;20119;-92
2021/08/07 09:30:27;;;;;;;4.60;1.20;;;;;;;;;;5016536;28;20077;-93
2021/08/07 09:32:57;;;;;;;8.95;1.05;;;;;;;;;;5016618;28;20037;-93
2021/08/07 09:35:23;;;;;;;8.80;1.45;;;;;;;;;;5026165;28;20028;-93
2021/08/07 09:38:07;;;;;;;8.38;1.20;;;;;;;;;;5017360;28;20385;-93
2021/08/07 09:40:46;;;;;;;4.45;1.02;;;;;;;;;;5022475;28;20029;-92
2021/08/07 09:43:13;;;;;;;2.60;0.90;;;;;;;;;;5048570;28;20026;-93
2021/08/07 09:45:39;;;;;;;8.27;1.30;;;;;;;;;;5015538;28;20489;-93
2021/08/07 09:48:06;;;;;;;4.30;1.20;;;;;;;;;;5016359;28;20022;-93
2021/08/07 09:50:32;;;;;;;3.92;1.00;;;;;;;;;;5021894;28;20029;-93
2021/08/07 09:52:58;;;;;;;8.55;1.10;;;;;;;;;;5021059;28;20025;-93
2021/08/07 09:55:24;;;;;;;9.32;1.15;;;;;;;;;;5018874;28;20021;-92
2021/08/07 09:58:01;;;;;;;6.55;1.13;;;;;;;;;;5019951;28;20466;-92
2021/08/07 10:00:41;;;;;;;3.45;1.00;;;;;;;;;;5050486;28;20022;-93
2021/08/07 10:03:15;;;;;;;5.22;1.08;;;;;;;;;;5016869;28;20446;-92
2021/08/07 10:05:40;;;;;;;4.85;1.35;;;;;;;;;;5022981;28;20028;-93
2021/08/07 10:08:07;;;;;;;5.85;1.20;;;;;;;;;;5014602;28;20423;-92
2021/08/07 10:10:33;;;;;;;3.75;0.80;;;;;;;;;;5023239;28;20022;-93
2021/08/07 10:12:59;;;;;;;6.50;1.20;;;;;;;;;;5014829;28;20493;-93
2021/08/07 10:15:24;;;;;;;6.55;1.00;;;;;;;;;;5014763;28;20117;-93
2021/08/07 10:17:50;;;;;;;5.57;1.00;;;;;;;;;;5020617;28;20037;-93
2021/08/07 10:20:15;;;;;;;6.75;0.80;;;;;;;;;;5056734;28;20048;-92
2021/08/07 10:22:41;;;;;;;7.40;0.93;;;;;;;;;;5026177;28;20382;-94
2021/08/07 10:25:08;;;;;;;2.63;0.80;;;;;;;;;;5025765;28;20021;-94
2021/08/07 10:27:34;;;;;;;3.38;0.80;;;;;;;;;;5017642;28;20183;-93
2021/08/07 10:30:00;;;;;;;2.33;0.60;;;;;;;;;;5030904;28;20025;-92
2021/08/07 10:32:27;;;;;;;3.38;0.65;;;;;;;;;;5016288;28;20116;-93
2021/08/07 10:34:53;;;;;;;7.45;0.77;;;;;;;;;;5021820;28;20029;-93
2021/08/07 10:37:19;;;;;;;2.17;0.70;;;;;;;;;;5028248;28;20021;-91
2021/08/07 10:39:44;;;;;;;3.55;1.02;;;;;;;;;;5014219;28;20466;-93
2021/08/07 10:42:14;;;;;;;4.88;0.80;;;;;;;;;;5014192;28;20013;-94
2021/08/07 10:44:42;;;;;;;5.20;0.80;;;;;;;;;;5016497;28;20022;-93
2021/08/07 10:47:07;;;;;;;4.78;0.75;;;;;;;;;;5025360;28;20087;-92
2021/08/07 10:49:33;;;;;;;3.53;0.88;;;;;;;;;;5023650;28;20041;-92
2021/08/07 10:52:00;;;;;;;2.47;0.52;;;;;;;;;;5025128;28;20022;-92
2021/08/07 10:54:25;;;;;;;3.78;0.60;;;;;;;;;;5021100;28;20342;-93
2021/08/07 10:56:50;;;;;;;6.38;0.95;;;;;;;;;;5026059;28;20034;-94
2021/08/07 10:59:19;;;;;;;4.68;0.68;;;;;;;;;;5013173;28;20054;-92
2021/08/07 11:01:49;;;;;;;3.38;0.68;;;;;;;;;;5022182;28;20063;-93
2021/08/07 11:04:14;;;;;;;3.50;0.60;;;;;;;;;;5016491;28;20080;-93
2021/08/07 11:06:48;;;;;;;2.83;0.50;;;;;;;;;;5021839;28;20443;-93
2021/08/07 11:09:21;;;;;;;4.22;0.75;;;;;;;;;;5018682;28;20079;-92
2021/08/07 11:11:47;;;;;;;2.58;0.50;;;;;;;;;;5024514;28;20064;-92
2021/08/07 11:14:24;;;;;;;5.35;0.70;;;;;;;;;;5021409;28;20107;-93
2021/08/07 11:17:02;;;;;;;5.22;0.85;;;;;;;;;;5018798;28;20054;-92
2021/08/07 11:19:46;;;;;;;3.92;0.68;;;;;;;;;;5048399;28;20025;-93
2021/08/07 11:22:12;;;;;;;3.78;0.93;;;;;;;;;;5041790;28;20022;-93
2021/08/07 11:24:43;;;;;;;3.17;0.70;;;;;;;;;;5014102;28;20489;-92
2021/08/07 11:27:09;;;;;;;5.20;0.80;;;;;;;;;;5030677;28;20021;-92
2021/08/07 11:29:34;;;;;;;8.60;1.05;;;;;;;;;;5022175;28;20037;-93
2021/08/07 11:32:15;;;;;;;1.98;0.70;;;;;;;;;;5013498;28;20033;-93
2021/08/07 11:34:46;;;;;;;4.43;0.82;;;;;;;;;;5042312;28;20026;-93
2021/08/07 11:37:12;;;;;;;5.20;0.80;;;;;;;;;;5022229;28;20025;-93
2021/08/07 11:39:56;;;;;;;4.50;0.40;;;;;;;;;;5021125;28;20025;-92
2021/08/07 11:42:38;;;;;;;2.90;0.50;;;;;;;;;;5039715;28;20075;-93
2021/08/07 11:45:04;;;;;;;;;;;;;;;;;;5046718;28;20018;-92
2021/08/07 11:47:30;;;;;;;4.50;0.60;;;;;;;;;;5013245;28;19913;-93
2021/08/07 11:49:56;;;;;;;6.85;0.80;;;;;;;;;;5012641;28;20271;-93
2021/08/07 11:52:21;;;;;;;3.97;0.80;;;;;;;;;;5020769;28;20028;-92
2021/08/07 11:54:51;;;;;;;4.72;0.80;;;;;;;;;;5020824;28;20022;-93
2021/08/07 11:57:26;;;;;;;3.42;0.90;;;;;;;;;;5013066;28;20080;-93
2021/08/07 11:59:51;;;;;;;3.42;0.70;;;;;;;;;;5014690;28;20026;-93
2021/08/07 12:02:16;;;;;;;3.67;0.60;;;;;;;;;;5045892;28;20024;-92
2021/08/07 12:04:42;;;;;;;3.80;0.70;;;;;;;;;;5012873;28;20053;-93
2021/08/07 12:07:11;;;;;;;2.10;0.73;;;;;;;;;;5013090;28;20026;-94
2021/08/07 12:09:37;;;;;;;5.60;0.70;;;;;;;;;;5015776;28;20049;-94
2021/08/07 12:12:02;;;;;;;2.75;0.65;;;;;;;;;;5018501;28;20495;-92
2021/08/07 12:14:28;;;;;;;3.95;0.70;;;;;;;;;;5015673;28;20029;-92
2021/08/07 12:16:53;;;;;;;1.08;0.50;;;;;;;;;;5024892;28;20032;-93
2021/08/07 12:19:20;;;;;;;3.05;0.73;;;;;;;;;;5024973;28;20029;-93
2021/08/07 12:21:46;;;;;;;0.75;0.45;;;;;;;;;;5012503;28;20049;-93
2021/08/07 12:24:21;;;;;;;2.30;0.60;;;;;;;;;;5012580;28;20123;-93
2021/08/07 12:26:48;;;;;;;2.55;0.93;;;;;;;;;;5018481;28;20508;-92
2021/08/07 12:29:15;;;;;;;4.75;0.88;;;;;;;;;;5014851;28;20470;-93
2021/08/07 12:31:41;;;;;;;2.38;0.65;;;;;;;;;;5013303;28;20104;-92
2021/08/07 12:34:29;;;;;;;2.40;0.57;;;;;;;;;;5020695;28;20103;-92
2021/08/07 12:37:24;;;;;;;3.20;0.55;;;;;;;;;;5037744;28;20045;-92
2021/08/07 12:39:53;;;;;;;3.35;0.65;;;;;;;;;;5021718;28;20393;-93
2021/08/07 12:42:19;;;;;;;3.40;0.70;;;;;;;;;;5057150;28;20092;-93
2021/08/07 12:44:55;;;;;;;3.67;0.70;;;;;;;;;;5012819;28;20021;-93
2021/08/07 12:47:24;;;;;;;4.22;0.80;;;;;;;;;;5016486;28;20030;-93
2021/08/07 12:49:50;;;;;;;1.48;0.65;;;;;;;;;;5012418;28;20028;-92
2021/08/07 12:52:16;;;;;;;2.53;0.82;;;;;;;;;;5016168;28;20030;-93
2021/08/07 12:54:42;;;;;;;2.65;0.77;;;;;;;;;;5011959;28;20028;-92
2021/08/07 12:57:19;;;;;;;2.22;0.60;;;;;;;;;;5045925;28;20044;-93
2021/08/07 12:59:49;;;;;;;3.70;0.43;;;;;;;;;;5051148;28;20022;-93
2021/08/07 13:02:14;;;;;;;2.40;0.43;;;;;;;;;;5012008;28;20030;-92
2021/08/07 13:04:47;;;;;;;1.55;0.60;;;;;;;;;;5020643;28;20129;-92
2021/08/07 13:07:14;;;;;;;3.03;0.60;;;;;;;;;;5014087;28;20053;-92
2021/08/07 13:09:39;;;;;;;1.92;0.57;;;;;;;;;;5012016;28;20038;-93
2021/08/07 13:12:06;;;;;;;2.35;0.60;;;;;;;;;;5013852;28;20540;-93
2021/08/07 13:14:32;;;;;;;3.78;0.50;;;;;;;;;;5019955;28;20051;-93
2021/08/07 13:16:57;;;;;;;4.53;0.60;;;;;;;;;;5012312;28;20041;-93
2021/08/07 13:19:24;;;;;;;7.20;0.60;;;;;;;;;;5012409;28;20046;-94
2021/08/07 13:21:51;;;;;;;1.10;0.50;;;;;;;;;;5017270;28;20017;-93
2021/08/07 13:24:33;;;;;;;3.95;0.63;;;;;;;;;;5024310;28;20024;-93
2021/08/07 13:26:59;;;;;;;1.85;0.63;;;;;;;;;;5023740;28;20037;-92
2021/08/07 13:29:24;;;;;;;3.45;0.50;;;;;;;;;;5025498;28;20026;-92
2021/08/07 13:31:49;;;;;;;4.15;0.75;;;;;;;;;;5016496;28;20028;-92
2021/08/07 13:34:15;;;;;;;5.03;0.77;;;;;;;;;;5028373;28;20025;-93
2021/08/07 13:36:40;;;;;;;1.52;0.57;;;;;;;;;;5029966;28;20017;-93
2021/08/07 13:39:05;;;;;;;2.63;0.57;;;;;;;;;;5028519;28;20125;-94
2021/08/07 13:41:30;;;;;;;4.10;0.70;;;;;;;;;;5021013;28;20033;-92
2021/08/07 13:43:56;;;;;;;3.53;0.60;;;;;;;;;;5022856;28;20018;-92
2021/08/07 13:46:21;;;;;;;5.45;0.80;;;;;;;;;;5030628;28;20040;-92
2021/08/07 13:48:46;;;;;;;7.30;0.70;;;;;;;;;;5024818;28;20028;-93
2021/08/07 13:51:11;;;;;;;6.35;0.68;;;;;;;;;;5023004;28;20497;-93
2021/08/07 13:53:36;;;;;;;2.75;0.70;;;;;;;;;;5016457;28;20113;-91
2021/08/07 13:56:02;;;;;;;3.88;0.80;;;;;;;;;;5015474;28;20132;-92
2021/08/07 13:58:27;;;;;;;2.92;0.60;;;;;;;;;;5022619;28;20064;-94
2021/08/07 14:00:52;;;;;;;3.47;0.80;;;;;;;;;;5014897;28;20097;-93
2021/08/07 14:03:19;;;;;;;2.03;0.60;;;;;;;;;;5024746;28;20036;-92
2021/08/07 14:05:44;;;;;;;2.92;0.68;;;;;;;;;;5023019;28;20080;-92
2021/08/07 14:08:09;;;;;;;1.77;0.60;;;;;;;;;;5029404;28;20021;-93
2021/08/07 14:10:35;;;;;;;4.78;0.73;;;;;;;;;;5024734;28;20030;-93
2021/08/07 14:13:00;;;;;;;1.77;0.77;;;;;;;;;;5028594;28;20116;-93
2021/08/07 14:15:26;;;;;;;4.38;0.90;;;;;;;;;;5018492;28;20453;-93
2021/08/07 14:17:51;;;;;;;3.88;1.05;;;;;;;;;;5020954;28;20021;-93
2021/08/07 14:20:16;;;;;;;5.82;1.50;;;;;;;;;;5020820;28;20489;-90
2021/08/07 14:22:41;;;;;;;0.00;0.00;;;;;;;;;;5016114;28;20365;-92
2021/08/07 14:25:07;;;;;;;2.35;0.70;;;;;;;;;;5015070;28;20075;-93
2021/08/07 14:27:32;;;;;;;7.90;1.65;;;;;;;;;;5014184;28;20103;-93
2021/08/07 14:29:57;;;;;;;2.45;1.00;;;;;;;;;;5014645;28;20076;-93
2021/08/07 14:32:22;;;;;;;4.97;1.23;;;;;;;;;;5025401;28;20488;-94
2021/08/07 14:34:48;;;;;;;5.95;1.42;;;;;;;;;;5022842;28;20052;-93
2021/08/07 14:37:13;;;;;;;4.90;1.80;;;;;;;;;;5056218;28;20041;-93
2021/08/07 14:39:38;;;;;;;5.15;1.92;;;;;;;;;;5020713;28;20057;-93